Time;durP1;ratioP1;P1;durP2;ratioP2;P2;SDS_P1;SDS_P2;PMS_P1;PMS_P2;Temp;Humidity;BMP_temperature;BMP_pressure;BME280_temperature;BME280_humidity;BME280_pressure;Samples;Min_cycle;Max_cycle;Signal;HPM_P1;HPM_P2
2022/05/26 00:01:31;;;;;;;1.27;0.80;;;;;;;15.49;100.00;99237.28;5068354;28;20204;-82
2022/05/26 00:03:59;;;;;;;3.57;0.80;;;;;;;15.42;100.00;99239.59;5068594;28;20252;-82
2022/05/26 00:06:30;;;;;;;3.03;0.90;;;;;;;15.43;100.00;99238.63;5076143;28;20216;-83
2022/05/26 00:08:59;;;;;;;3.13;0.87;;;;;;;15.49;100.00;99239.09;5076073;28;20421;-82
2022/05/26 00:11:31;;;;;;;2.60;0.90;;;;;;;15.54;100.00;99240.44;5076087;28;20275;-82
2022/05/26 00:14:07;;;;;;;3.73;1.00;;;;;;;15.51;100.00;99242.50;5073326;28;20196;-82
2022/05/26 00:16:35;;;;;;;2.37;0.90;;;;;;;15.60;100.00;99239.94;5076425;28;20196;-82
2022/05/26 00:19:04;;;;;;;1.57;0.90;;;;;;;15.47;100.00;99247.25;5074685;28;20204;-83
2022/05/26 00:21:34;;;;;;;1.43;0.80;;;;;;;15.37;100.00;99248.97;5077221;28;20189;-83
2022/05/26 00:24:02;;;;;;;1.57;0.80;;;;;;;15.36;100.00;99252.63;5075854;28;20208;-82
2022/05/26 00:26:31;;;;;;;1.17;0.80;;;;;;;15.55;100.00;99243.94;5073750;28;20200;-83
2022/05/26 00:28:59;;;;;;;1.57;0.80;;;;;;;15.59;100.00;99240.88;5070276;28;20228;-82
2022/05/26 00:31:27;;;;;;;4.13;0.90;;;;;;;15.61;100.00;99248.78;5075748;28;20193;-83
2022/05/26 00:33:55;;;;;;;2.07;0.90;;;;;;;15.59;100.00;99242.72;5074379;28;20197;-82
2022/05/26 00:39:11;;;;;;;2.00;0.80;;;;;;;15.52;100.00;99241.50;5076816;28;20219;-82
2022/05/26 00:41:41;;;;;;;1.80;0.77;;;;;;;15.49;100.00;99239.09;5074009;28;20275;-82
2022/05/26 00:44:11;;;;;;;1.40;0.70;;;;;;;15.48;100.00;99240.09;5070953;28;20197;-83
2022/05/26 00:46:45;;;;;;;3.07;0.80;;;;;;;15.57;100.00;99245.50;5077869;28;20206;-83
2022/05/26 00:49:32;;;;;;;4.30;0.80;;;;;;;15.52;100.00;99238.84;5069768;28;20269;-82
2022/05/26 00:52:02;;;;;;;1.50;0.80;;;;;;;15.42;100.00;99244.94;5031194;28;20206;-83
2022/05/26 00:54:34;;;;;;;1.83;1.00;;;;;;;15.41;100.00;99250.41;5033533;28;20194;-82
2022/05/26 00:57:06;;;;;;;1.77;0.90;;;;;;;15.38;100.00;99254.19;5034851;28;20205;-83
2022/05/26 00:59:43;;;;;;;1.87;0.80;;;;;;;15.26;100.00;99249.03;5030442;28;20202;-82
2022/05/26 01:02:13;;;;;;;2.50;0.80;;;;;;;15.20;100.00;99249.50;5029077;28;20197;-82
2022/05/26 01:04:45;;;;;;;1.27;0.70;;;;;;;15.16;100.00;99248.91;5033455;28;20197;-82
2022/05/26 01:07:18;;;;;;;1.23;0.80;;;;;;;15.24;100.00;99253.63;5027062;28;20276;-83
2022/05/26 01:09:48;;;;;;;3.90;1.03;;;;;;;15.15;100.00;99252.53;5048773;28;20212;-82
2022/05/26 01:12:17;;;;;;;3.10;1.00;;;;;;;15.13;100.00;99249.16;5073436;28;20222;-82
2022/05/26 01:14:50;;;;;;;2.33;0.80;;;;;;;15.14;100.00;99249.03;5070456;28;20211;-82
2022/05/26 01:17:29;;;;;;;2.47;0.73;;;;;;;15.05;100.00;99251.59;5080081;28;20200;-83
2022/05/26 01:20:15;;;;;;;3.77;0.80;;;;;;;15.17;100.00;99251.47;5073858;28;20643;-82
2022/05/26 01:23:13;;;;;;;1.93;0.63;;;;;;;15.16;100.00;99249.78;5072250;28;20196;-83
2022/05/26 01:26:34;;;;;;;0.77;0.70;;;;;;;15.05;100.00;99249.75;5057860;28;20319;-83
2022/05/26 01:29:40;;;;;;;2.53;0.77;;;;;;;14.98;100.00;99255.75;5074166;28;20231;-82
2022/05/26 01:32:20;;;;;;;3.30;1.07;;;;;;;15.09;100.00;99250.38;5067495;28;20203;-82
2022/05/26 01:34:56;;;;;;;1.53;0.70;;;;;;;14.93;100.00;99249.91;5071039;28;20200;-82
2022/05/26 01:37:32;;;;;;;2.17;0.80;;;;;;;14.83;100.00;99258.66;5074070;28;20185;-83
2022/05/26 01:40:09;;;;;;;2.73;1.10;;;;;;;14.95;100.00;99254.16;5073862;28;20222;-83
2022/05/26 01:42:47;;;;;;;2.53;0.80;;;;;;;14.97;100.00;99254.91;5021936;28;20190;-84
2022/05/26 01:45:24;;;;;;;0.87;0.70;;;;;;;15.14;100.00;99254.34;4979868;28;20208;-83
2022/05/26 01:48:01;;;;;;;1.80;0.80;;;;;;;15.27;100.00;99250.72;4973279;28;20203;-83
2022/05/26 01:50:38;;;;;;;1.53;1.00;;;;;;;15.05;100.00;99254.25;4972046;28;20322;-82
2022/05/26 01:53:17;;;;;;;3.53;1.00;;;;;;;14.97;100.00;99256.72;4970033;28;20207;-82
2022/05/26 01:55:53;;;;;;;1.27;0.80;;;;;;;14.69;100.00;99247.41;4967036;28;20204;-83
2022/05/26 01:58:30;;;;;;;2.83;0.80;;;;;;;14.73;100.00;99243.50;4970776;28;20192;-82
2022/05/26 02:01:02;;;;;;;1.43;0.97;;;;;;;14.79;100.00;99246.56;4970951;28;20206;-82
2022/05/26 02:03:34;;;;;;;1.87;0.90;;;;;;;14.90;100.00;99251.03;4988036;28;20297;-83
2022/05/26 02:06:13;;;;;;;1.10;0.77;;;;;;;14.80;100.00;99247.41;5011704;28;20204;-82
2022/05/26 02:08:46;;;;;;;4.77;0.80;;;;;;;15.03;100.00;99245.53;5071164;28;20200;-83
2022/05/26 02:11:16;;;;;;;1.80;0.80;;;;;;;15.04;100.00;99241.88;5073161;28;20224;-83
2022/05/26 02:13:50;;;;;;;2.40;0.80;;;;;;;15.02;100.00;99244.69;5073606;28;20204;-83
2022/05/26 02:16:25;;;;;;;3.87;1.10;;;;;;;15.09;100.00;99247.72;5074145;28;20206;-82
2022/05/26 02:19:00;;;;;;;2.20;0.90;;;;;;;15.07;100.00;99239.84;5070844;28;20199;-82
2022/05/26 02:21:35;;;;;;;1.33;0.70;;;;;;;15.03;100.00;99238.38;5073965;28;20371;-82
2022/05/26 02:24:09;;;;;;;2.00;0.63;;;;;;;15.12;100.00;99239.47;5072765;28;20279;-82
2022/05/26 02:26:38;;;;;;;2.57;0.93;;;;;;;15.05;100.00;99228.41;5064564;28;20204;-83
2022/05/26 02:31:55;;;;;;;1.77;0.70;;;;;;;14.92;100.00;99237.56;5073254;28;20220;-83
2022/05/26 02:34:26;;;;;;;2.07;0.80;;;;;;;14.99;100.00;99246.78;5072091;28;20214;-82
2022/05/26 02:36:58;;;;;;;0.80;0.67;;;;;;;14.74;100.00;99251.38;5070492;28;20222;-83
2022/05/26 02:39:26;;;;;;;1.50;0.90;;;;;;;14.79;100.00;99249.22;5073334;28;20224;-83
2022/05/26 02:41:57;;;;;;;3.30;0.80;;;;;;;14.86;100.00;99253.09;5073274;28;20231;-82
2022/05/26 02:44:27;;;;;;;3.33;0.80;;;;;;;14.74;100.00;99239.88;5072819;28;20232;-83
2022/05/26 02:47:10;;;;;;;2.33;0.83;;;;;;;14.70;100.00;99243.78;5073333;28;20207;-83
2022/05/26 02:49:51;;;;;;;1.00;0.70;;;;;;;14.84;100.00;99249.69;5053695;28;20249;-83
2022/05/26 02:52:28;;;;;;;1.17;0.73;;;;;;;14.71;100.00;99240.97;5069538;28;20707;-82
2022/05/26 02:55:06;;;;;;;3.97;1.00;;;;;;;14.71;100.00;99248.13;5071020;28;20192;-82
2022/05/26 02:57:43;;;;;;;5.07;1.07;;;;;;;14.58;100.00;99254.44;5071514;28;20207;-82
2022/05/26 03:00:17;;;;;;;7.93;1.10;;;;;;;14.69;100.00;99250.91;5073411;28;20207;-83
2022/05/26 03:02:57;;;;;;;1.50;0.87;;;;;;;14.60;100.00;99251.66;5073834;28;20196;-83
2022/05/26 03:05:32;;;;;;;1.70;1.00;;;;;;;14.54;100.00;99258.31;5073799;28;20196;-82
2022/05/26 03:08:05;;;;;;;1.13;0.67;;;;;;;14.67;100.00;99257.31;5077160;28;20270;-83
2022/05/26 03:10:34;;;;;;;2.60;0.80;;;;;;;14.54;100.00;99262.78;5077257;28;20208;-83
2022/05/26 03:13:03;;;;;;;2.97;1.17;;;;;;;14.62;100.00;99260.38;5077505;28;20280;-82
2022/05/26 03:15:33;;;;;;;4.27;0.80;;;;;;;14.62;100.00;99263.03;5075483;28;20211;-83
2022/05/26 03:18:03;;;;;;;2.40;1.00;;;;;;;14.68;100.00;99257.22;5080131;28;20208;-83
2022/05/26 03:20:35;;;;;;;2.40;0.83;;;;;;;14.66;100.00;99252.97;5033669;28;20198;-82
2022/05/26 03:23:03;;;;;;;1.97;0.70;;;;;;;14.55;100.00;99252.00;5034653;28;20236;-83
2022/05/26 03:25:31;;;;;;;1.27;0.70;;;;;;;14.62;100.00;99262.19;5032126;28;20201;-82
2022/05/26 03:28:00;;;;;;;2.47;0.80;;;;;;;14.55;100.00;99262.66;5032487;28;20208;-81
2022/05/26 03:30:28;;;;;;;1.37;0.80;;;;;;;14.55;100.00;99257.31;5034632;28;20265;-83
2022/05/26 03:32:56;;;;;;;3.53;0.80;;;;;;;14.49;100.00;99263.16;5028825;28;20201;-82
2022/05/26 03:40:57;;;;;;;2.40;0.80;;;;;;;14.44;100.00;99269.78;5077343;28;20331;-82
2022/05/26 03:43:32;;;;;;;1.67;0.80;;;;;;;14.63;100.00;99275.38;5070643;28;20204;-82
2022/05/26 03:46:01;;;;;;;3.43;1.00;;;;;;;14.57;100.00;99283.84;5078512;28;20196;-82
2022/05/26 03:48:30;;;;;;;1.33;0.80;;;;;;;14.23;100.00;99282.94;5078027;28;20191;-82
2022/05/26 03:50:58;;;;;;;1.87;0.70;;;;;;;14.36;100.00;99288.19;5073272;28;20219;-83
2022/05/26 03:53:28;;;;;;;1.43;0.80;;;;;;;14.43;100.00;99287.59;5074730;28;20188;-82
2022/05/26 03:55:58;;;;;;;1.33;0.90;;;;;;;14.32;100.00;99293.75;5075913;28;20199;-82
2022/05/26 03:58:27;;;;;;;0.93;0.70;;;;;;;14.28;100.00;99297.63;5076315;28;20280;-82
2022/05/26 04:00:56;;;;;;;1.23;0.77;;;;;;;14.37;100.00;99293.38;5073638;28;20256;-82
2022/05/26 04:03:24;;;;;;;2.20;0.73;;;;;;;14.27;100.00;99306.56;5072753;28;20205;-82
2022/05/26 04:05:53;;;;;;;2.10;0.70;;;;;;;14.35;100.00;99310.47;5070370;28;20196;-82
2022/05/26 04:08:21;;;;;;;2.43;0.83;;;;;;;14.24;100.00;99319.28;5073492;28;20204;-82
2022/05/26 04:10:52;;;;;;;3.30;0.70;;;;;;;14.27;100.00;99311.88;5069420;28;20643;-83
2022/05/26 04:13:20;;;;;;;1.13;0.70;;;;;;;14.43;100.00;99308.91;5073872;28;20189;-83
2022/05/26 04:15:54;;;;;;;2.63;1.07;;;;;;;14.40;100.00;99318.97;5077458;28;20242;-83
2022/05/26 04:18:22;;;;;;;3.00;0.90;;;;;;;14.30;100.00;99318.81;5075718;28;20188;-83
2022/05/26 04:20:51;;;;;;;1.40;0.80;;;;;;;14.37;100.00;99320.03;5070723;28;20185;-82
2022/05/26 04:23:19;;;;;;;2.53;0.70;;;;;;;14.42;100.00;99325.88;5075520;28;20196;-82
2022/05/26 04:25:48;;;;;;;1.53;0.73;;;;;;;14.45;100.00;99340.78;5072180;28;20231;-82
2022/05/26 04:28:18;;;;;;;2.90;0.70;;;;;;;14.51;100.00;99327.84;5075737;28;20196;-82
2022/05/26 04:30:46;;;;;;;2.77;0.73;;;;;;;14.47;100.00;99333.53;5077486;28;20243;-82
2022/05/26 04:33:15;;;;;;;1.47;0.70;;;;;;;14.45;100.00;99338.13;5075562;28;20260;-82
2022/05/26 04:35:44;;;;;;;2.13;0.80;;;;;;;14.56;100.00;99340.81;5071360;28;20224;-82
2022/05/26 04:38:12;;;;;;;1.60;0.77;;;;;;;14.63;100.00;99342.03;5067975;28;20200;-82
2022/05/26 04:40:40;;;;;;;0.80;0.70;;;;;;;14.49;100.00;99335.13;5070720;28;20201;-82
2022/05/26 04:43:10;;;;;;;1.60;0.70;;;;;;;14.57;100.00;99342.50;5068211;28;20199;-82
2022/05/26 04:45:40;;;;;;;1.93;0.80;;;;;;;14.45;100.00;99348.78;5071355;28;20202;-82
2022/05/26 04:48:09;;;;;;;0.93;0.70;;;;;;;14.62;100.00;99351.00;5057072;28;20197;-83
2022/05/26 04:50:37;;;;;;;2.53;0.70;;;;;;;14.61;100.00;99349.31;5073417;28;20192;-82
2022/05/26 04:53:08;;;;;;;2.03;0.80;;;;;;;14.65;100.00;99364.09;5075101;28;20303;-82
2022/05/26 04:55:36;;;;;;;1.20;0.60;;;;;;;14.68;100.00;99365.69;5067805;28;20208;-82
2022/05/26 04:58:04;;;;;;;1.87;0.80;;;;;;;14.64;100.00;99365.06;5066899;28;20230;-82
2022/05/26 05:00:33;;;;;;;3.07;0.90;;;;;;;14.85;100.00;99362.53;5074524;28;20192;-82
2022/05/26 05:03:03;;;;;;;2.27;0.80;;;;;;;14.99;100.00;99364.97;5074949;28;20188;-82
2022/05/26 05:05:31;;;;;;;2.03;0.70;;;;;;;15.10;100.00;99370.31;5073380;28;20682;-82
2022/05/26 05:07:59;;;;;;;2.67;0.70;;;;;;;15.16;100.00;99367.19;5074948;28;20192;-81
2022/05/26 05:10:27;;;;;;;3.73;0.90;;;;;;;15.16;100.00;99374.34;5077102;28;20200;-82
2022/05/26 05:12:58;;;;;;;2.30;0.90;;;;;;;15.23;100.00;99372.84;5092637;28;20224;-84
2022/05/26 05:15:32;;;;;;;1.57;0.73;;;;;;;15.29;100.00;99372.38;5080738;28;20286;-82
2022/05/26 05:18:02;;;;;;;1.07;0.70;;;;;;;15.26;100.00;99374.44;5074968;28;20295;-82
2022/05/26 05:20:34;;;;;;;2.37;0.70;;;;;;;15.26;100.00;99371.78;5072007;28;20193;-82
2022/05/26 05:23:06;;;;;;;1.07;0.90;;;;;;;15.17;100.00;99376.88;5069080;28;20211;-82
2022/05/26 05:25:39;;;;;;;2.30;0.73;;;;;;;15.21;100.00;99377.47;5070791;28;20251;-81
2022/05/26 05:28:13;;;;;;;1.73;0.70;;;;;;;15.26;100.00;99375.28;5074013;28;20687;-83
2022/05/26 05:30:48;;;;;;;1.57;0.80;;;;;;;15.17;100.00;99381.38;5074415;28;20221;-83
2022/05/26 05:33:22;;;;;;;1.43;0.70;;;;;;;15.41;100.00;99376.72;5077264;28;20242;-82
2022/05/26 05:35:54;;;;;;;2.30;0.73;;;;;;;15.47;100.00;99380.72;5074322;28;20252;-82
2022/05/26 05:38:23;;;;;;;2.50;0.70;;;;;;;15.51;100.00;99384.84;5071802;28;20207;-82
2022/05/26 05:40:52;;;;;;;1.80;0.87;;;;;;;15.21;100.00;99385.47;5079491;28;20639;-82
2022/05/26 05:43:20;;;;;;;1.20;0.83;;;;;;;15.30;100.00;99391.91;5066711;28;20263;-82
2022/05/26 05:45:48;;;;;;;3.73;1.00;;;;;;;15.43;100.00;99393.44;5074217;28;20196;-82
2022/05/26 05:48:18;;;;;;;1.77;0.67;;;;;;;15.41;100.00;99392.72;5068796;28;20280;-83
2022/05/26 05:50:46;;;;;;;1.63;0.80;;;;;;;15.59;100.00;99394.91;5068325;28;20203;-83
2022/05/26 05:53:15;;;;;;;2.73;0.83;;;;;;;15.42;100.00;99398.91;5076509;28;20216;-83
2022/05/26 05:55:44;;;;;;;1.00;0.63;;;;;;;15.31;100.00;99404.28;5078716;28;20193;-82
2022/05/26 05:58:12;;;;;;;1.53;0.83;;;;;;;15.46;100.00;99406.56;5070756;28;20200;-82
2022/05/26 06:00:41;;;;;;;2.07;0.73;;;;;;;15.41;100.00;99410.56;5079226;28;20188;-82
2022/05/26 06:03:11;;;;;;;2.10;0.80;;;;;;;15.66;100.00;99413.00;5068073;28;20200;-82
2022/05/26 06:05:41;;;;;;;2.63;0.80;;;;;;;15.69;100.00;99404.75;5067420;28;20192;-82
2022/05/26 06:08:09;;;;;;;3.30;1.13;;;;;;;15.69;100.00;99414.56;5073556;28;20196;-82
2022/05/26 06:10:38;;;;;;;1.07;0.70;;;;;;;15.82;100.00;99406.41;5073099;28;20193;-82
2022/05/26 06:13:06;;;;;;;5.13;0.70;;;;;;;15.67;100.00;99413.84;5072639;28;20212;-82
2022/05/26 06:15:34;;;;;;;1.23;0.70;;;;;;;15.71;100.00;99409.94;5073262;28;20200;-83
2022/05/26 06:18:06;;;;;;;1.83;0.60;;;;;;;15.78;100.00;99413.84;5073468;28;20658;-82
2022/05/26 06:20:34;;;;;;;2.93;0.70;;;;;;;15.89;100.00;99419.13;5068037;28;20223;-83
2022/05/26 06:23:04;;;;;;;3.53;1.10;;;;;;;15.95;100.00;99420.47;5066546;28;20195;-82
2022/05/26 06:25:32;;;;;;;1.30;0.80;;;;;;;16.02;100.00;99416.34;5071296;28;20193;-82
2022/05/26 06:30:45;;;;;;;1.20;0.70;;;;;;;16.28;100.00;99422.16;5073043;28;20220;-81
2022/05/26 06:38:47;;;;;;;1.47;0.80;;;;;;;16.03;100.00;99431.38;5072931;28;20204;-83
2022/05/26 06:44:10;;;;;;;3.33;0.90;;;;;;;16.04;100.00;99427.75;5073456;28;20196;-82
2022/05/26 06:46:39;;;;;;;2.97;1.00;;;;;;;16.07;100.00;99422.13;5072799;28;20200;-82
2022/05/26 06:49:07;;;;;;;3.37;1.23;;;;;;;16.07;100.00;99432.81;5072386;28;20207;-82
2022/05/26 06:51:36;;;;;;;1.67;0.90;;;;;;;15.92;100.00;99445.63;5064306;28;20204;-86
2022/05/26 06:54:06;;;;;;;2.13;1.27;;;;;;;16.13;100.00;99436.81;5066760;28;20224;-81
2022/05/26 06:56:35;;;;;;;4.10;0.93;;;;;;;16.12;100.00;99443.16;5072818;28;20214;-82
2022/05/26 06:59:03;;;;;;;3.33;0.90;;;;;;;16.22;100.00;99452.94;5072944;28;20200;-81
2022/05/26 07:01:33;;;;;;;3.37;1.10;;;;;;;16.25;100.00;99450.00;5073063;28;20216;-81
2022/05/26 07:04:01;;;;;;;2.33;1.00;;;;;;;16.34;100.00;99450.22;5071408;28;20203;-83
2022/05/26 07:06:30;;;;;;;1.73;0.80;;;;;;;16.38;100.00;99452.50;5064881;28;20209;-82
2022/05/26 07:08:59;;;;;;;2.67;1.13;;;;;;;16.52;100.00;99457.56;5073132;28;20215;-82
2022/05/26 07:11:30;;;;;;;3.33;0.93;;;;;;;16.68;100.00;99465.16;5072087;28;20199;-82
2022/05/26 07:13:58;;;;;;;3.50;0.90;;;;;;;16.78;100.00;99465.22;5010942;28;20228;-82
2022/05/26 07:16:27;;;;;;;1.57;0.90;;;;;;;16.86;100.00;99468.97;5006327;28;20203;-82
2022/05/26 07:18:55;;;;;;;2.23;1.13;;;;;;;16.80;100.00;99474.84;5004855;28;20205;-81
2022/05/26 07:21:24;;;;;;;2.67;1.00;;;;;;;16.44;100.00;99477.91;5010455;28;20302;-82
2022/05/26 07:23:54;;;;;;;3.57;0.97;;;;;;;16.84;100.00;99475.44;5006110;28;20190;-82
2022/05/26 07:26:24;;;;;;;2.40;1.03;;;;;;;16.94;100.00;99476.34;5011185;28;20198;-80
2022/05/26 07:28:53;;;;;;;3.03;1.00;;;;;;;16.61;100.00;99480.03;5007040;28;20278;-81
2022/05/26 07:31:22;;;;;;;1.63;1.00;;;;;;;16.50;100.00;99494.28;5016752;28;20193;-82
2022/05/26 07:33:50;;;;;;;3.37;1.00;;;;;;;16.65;100.00;99484.13;5071327;28;20228;-81
2022/05/26 07:41:56;;;;;;;5.90;1.33;;;;;;;16.76;100.00;99489.44;5072356;28;20200;-82
2022/05/26 07:44:28;;;;;;;3.40;1.00;;;;;;;17.02;100.00;99495.28;5072376;28;20208;-82
2022/05/26 07:46:56;;;;;;;4.37;1.30;;;;;;;16.75;100.00;99492.25;5068433;28;20204;-81
2022/05/26 07:49:25;;;;;;;3.43;1.10;;;;;;;17.17;100.00;99501.13;5071663;28;20249;-81
2022/05/26 07:51:53;;;;;;;4.50;1.17;;;;;;;17.21;100.00;99493.69;5073766;28;20211;-81
2022/05/26 07:54:22;;;;;;;2.80;1.10;;;;;;;17.24;100.00;99499.63;5075961;28;20224;-81
2022/05/26 07:56:50;;;;;;;1.67;0.90;;;;;;;17.29;100.00;99493.91;5076273;28;20643;-81
2022/05/26 07:59:19;;;;;;;3.47;1.00;;;;;;;17.32;100.00;99504.31;5072261;28;20318;-82
2022/05/26 08:01:51;;;;;;;4.27;1.30;;;;;;;17.01;100.00;99503.44;5074489;28;20189;-82
2022/05/26 08:04:20;;;;;;;2.87;1.27;;;;;;;16.99;100.00;99506.25;5074831;28;20619;-82
2022/05/26 08:06:50;;;;;;;2.33;1.10;;;;;;;17.23;100.00;99507.78;5072439;28;20212;-81
2022/05/26 08:09:19;;;;;;;3.10;1.43;;;;;;;17.43;100.00;99504.25;5053601;28;20200;-81
2022/05/26 08:11:49;;;;;;;2.17;1.17;;;;;;;17.32;100.00;99513.22;5068819;28;20211;-81
2022/05/26 08:14:17;;;;;;;2.40;1.00;;;;;;;17.49;100.00;99521.63;5075753;28;20220;-82
2022/05/26 08:16:46;;;;;;;3.40;1.10;;;;;;;17.51;100.00;99514.31;5075638;28;20228;-82
2022/05/26 08:19:15;;;;;;;2.97;1.20;;;;;;;17.62;100.00;99519.56;5070671;28;20224;-82
2022/05/26 08:21:43;;;;;;;2.20;1.30;;;;;;;17.61;100.00;99515.19;5078165;28;20208;-82
2022/05/26 08:24:12;;;;;;;3.23;1.10;;;;;;;17.73;100.00;99514.13;5074360;28;20279;-83
2022/05/26 08:26:40;;;;;;;4.53;1.30;;;;;;;17.98;100.00;99516.34;5071430;28;20200;-82
2022/05/26 08:29:08;;;;;;;3.97;1.00;;;;;;;17.56;100.00;99517.41;5075175;28;20307;-82
2022/05/26 08:31:37;;;;;;;2.77;1.30;;;;;;;17.60;100.00;99525.06;5071570;28;20307;-83
2022/05/26 08:34:05;;;;;;;2.93;1.40;;;;;;;17.73;100.00;99528.38;5074257;28;20340;-82
2022/05/26 08:36:37;;;;;;;2.07;1.20;;;;;;;17.85;100.00;99514.88;5075229;28;20192;-82
2022/05/26 08:39:05;;;;;;;3.30;1.30;;;;;;;17.98;100.00;99520.88;5071339;28;20204;-82
2022/05/26 08:41:36;;;;;;;3.47;1.10;;;;;;;18.46;100.00;99517.44;5070810;28;20284;-81
2022/05/26 08:44:10;;;;;;;4.37;1.30;;;;;;;18.06;100.00;99544.31;5082222;28;20219;-82
2022/05/26 08:46:46;;;;;;;2.77;1.20;;;;;;;18.31;100.00;99525.03;5077776;28;20225;-82
2022/05/26 08:49:23;;;;;;;3.37;1.50;;;;;;;18.43;100.00;99531.13;5074634;28;20199;-82
2022/05/26 08:51:59;;;;;;;3.50;1.30;;;;;;;18.56;100.00;99532.56;5071740;28;20188;-83
2022/05/26 08:54:31;;;;;;;4.63;1.67;;;;;;;18.49;100.00;99533.25;5076423;28;20215;-82
2022/05/26 08:57:01;;;;;;;3.10;1.40;;;;;;;18.90;100.00;99539.38;5076263;28;20275;-82
2022/05/26 08:59:35;;;;;;;2.57;1.23;;;;;;;19.23;100.00;99540.78;5074542;28;20200;-82
2022/05/26 09:02:06;;;;;;;4.60;1.33;;;;;;;19.59;100.00;99531.97;5071878;28;20211;-82
2022/05/26 09:04:34;;;;;;;5.37;1.70;;;;;;;19.70;100.00;99542.53;5075055;28;20195;-82
2022/05/26 09:12:59;;;;;;;1.23;0.93;;;;;;;19.09;100.00;99550.94;5075009;28;20248;-82
2022/05/26 09:15:28;;;;;;;2.50;1.20;;;;;;;19.23;100.00;99549.69;5072041;28;20239;-82
2022/05/26 09:17:57;;;;;;;2.90;1.40;;;;;;;19.26;100.00;99554.75;5067825;28;20279;-82
2022/05/26 09:20:39;;;;;;;3.80;1.40;;;;;;;18.37;100.00;99562.03;5072719;28;20274;-85
2022/05/26 09:23:28;;;;;;;3.57;1.47;;;;;;;18.55;100.00;99554.19;5073149;28;20207;-82
2022/05/26 09:26:06;;;;;;;3.40;1.33;;;;;;;18.98;100.00;99548.41;5072657;28;20196;-82
2022/05/26 09:28:43;;;;;;;4.50;1.40;;;;;;;19.05;100.00;99562.97;5075274;28;20197;-83
2022/05/26 09:31:33;;;;;;;3.07;1.10;;;;;;;18.90;100.00;99560.84;5074421;28;20200;-82
2022/05/26 09:34:08;;;;;;;4.17;1.20;;;;;;;18.72;100.00;99558.88;5069461;28;20311;-82
2022/05/26 09:36:45;;;;;;;4.10;1.30;;;;;;;18.63;100.00;99559.69;5076798;28;20238;-82
2022/05/26 09:39:20;;;;;;;2.93;1.10;;;;;;;18.68;100.00;99570.88;5069715;28;20279;-82
2022/05/26 09:41:50;;;;;;;3.83;1.47;;;;;;;19.03;100.00;99569.50;5073962;28;20195;-82
2022/05/26 09:44:30;;;;;;;3.07;1.10;;;;;;;19.28;100.00;99565.34;5073021;28;20195;-83
2022/05/26 09:47:04;;;;;;;3.63;1.30;;;;;;;19.37;100.00;99567.19;5071098;28;20286;-82
2022/05/26 09:49:42;;;;;;;4.57;1.37;;;;;;;19.76;100.00;99565.25;5076470;28;20196;-82
2022/05/26 09:52:16;;;;;;;6.17;1.60;;;;;;;20.08;100.00;99559.50;5066532;28;20200;-82
2022/05/26 09:54:48;;;;;;;2.40;1.20;;;;;;;19.68;100.00;99571.38;5073507;28;20223;-82
2022/05/26 09:57:20;;;;;;;3.50;1.50;;;;;;;19.51;100.00;99571.28;5073395;28;20374;-82
2022/05/26 09:59:48;;;;;;;5.10;1.40;;;;;;;19.40;100.00;99575.81;5074401;28;20207;-82
2022/05/26 10:02:22;;;;;;;3.27;1.30;;;;;;;19.47;100.00;99573.38;5071918;28;20252;-82
2022/05/26 10:05:10;;;;;;;3.10;1.30;;;;;;;19.64;100.00;99575.34;5073802;28;20203;-82
2022/05/26 10:07:55;;;;;;;3.33;1.37;;;;;;;19.49;100.00;99578.59;5031604;28;20281;-82
2022/05/26 10:10:30;;;;;;;3.07;1.20;;;;;;;20.01;100.00;99583.44;5031918;28;20202;-82
2022/05/26 10:13:16;;;;;;;5.20;1.47;;;;;;;19.91;100.00;99596.06;5031373;28;20205;-82
2022/05/26 10:15:55;;;;;;;4.70;1.40;;;;;;;19.80;100.00;99582.81;5028278;28;20842;-81
2022/05/26 10:18:41;;;;;;;3.37;1.10;;;;;;;20.25;100.00;99582.88;5027412;28;20243;-82
2022/05/26 10:21:16;;;;;;;4.37;1.10;;;;;;;20.16;100.00;99589.16;5030182;28;20209;-83
2022/05/26 10:24:17;;;;;;;1.07;0.97;;;;;;;20.05;100.00;99581.28;5028842;28;20207;-83
2022/05/26 10:26:53;;;;;;;2.90;1.50;;;;;;;19.26;100.00;99580.78;5028850;28;20256;-83
2022/05/26 10:29:34;;;;;;;4.10;1.60;;;;;;;18.95;100.00;99585.44;5025098;28;20275;-83
2022/05/26 10:32:15;;;;;;;2.93;1.30;;;;;;;19.28;100.00;99587.69;5047287;28;20227;-82
2022/05/26 10:34:58;;;;;;;3.50;1.53;;;;;;;19.27;100.00;99586.00;5067833;28;20387;-83
2022/05/26 10:37:39;;;;;;;3.10;1.20;;;;;;;19.59;100.00;99577.66;5075808;28;20200;-83
2022/05/26 10:40:25;;;;;;;2.63;1.27;;;;;;;19.77;100.00;99583.09;5070192;28;20196;-83
2022/05/26 10:43:01;;;;;;;2.83;1.23;;;;;;;19.77;100.00;99577.72;5075418;28;20204;-82
2022/05/26 10:45:38;;;;;;;4.43;1.20;;;;;;;20.22;100.00;99572.44;5053000;28;20219;-83
2022/05/26 10:48:11;;;;;;;2.63;1.30;;;;;;;20.10;100.00;99579.00;5073029;28;20651;-82
2022/05/26 10:50:45;;;;;;;3.83;1.33;;;;;;;20.10;100.00;99589.78;5072013;28;20203;-83
2022/05/26 10:53:23;;;;;;;4.30;1.33;;;;;;;19.66;100.00;99588.66;5072635;28;20368;-83
2022/05/26 10:56:05;;;;;;;3.53;1.40;;;;;;;19.31;100.00;99584.72;5069316;28;20257;-82
2022/05/26 10:58:39;;;;;;;3.63;1.30;;;;;;;19.08;100.00;99584.16;5053806;28;20206;-82
2022/05/26 11:01:16;;;;;;;4.00;1.43;;;;;;;18.58;100.00;99586.09;5073024;28;20411;-83
2022/05/26 11:03:51;;;;;;;3.37;1.47;;;;;;;18.44;100.00;99606.13;5068982;28;20222;-82
2022/05/26 11:06:26;;;;;;;6.33;1.50;;;;;;;18.29;100.00;99604.78;5069226;28;20202;-82
2022/05/26 11:09:02;;;;;;;3.40;1.40;;;;;;;18.02;100.00;99603.56;5071000;28;20196;-84
2022/05/26 11:11:37;;;;;;;3.00;1.30;;;;;;;18.18;100.00;99599.53;5067132;28;20214;-82
2022/05/26 11:17:21;;;;;;;2.00;1.40;;;;;;;18.35;100.00;99598.03;5072723;28;20187;-82
2022/05/26 11:17:22;;;;;;;3.00;1.23;;;;;;;18.40;100.00;99599.31;5072943;28;20189;-82
2022/05/26 11:19:54;;;;;;;1.87;1.30;;;;;;;18.58;100.00;99602.19;5071117;28;20197;-83
2022/05/26 11:22:22;;;;;;;3.67;1.40;;;;;;;18.27;100.00;99596.03;5070245;28;20200;-83
2022/05/26 11:24:53;;;;;;;3.83;1.70;;;;;;;18.32;100.00;99601.81;5072340;28;20199;-83
2022/05/26 11:27:28;;;;;;;3.17;1.27;;;;;;;18.46;100.00;99595.25;5033113;28;20207;-82
2022/05/26 11:30:02;;;;;;;2.87;1.60;;;;;;;18.55;100.00;99605.16;5071599;28;20227;-82
2022/05/26 11:38:22;;;;;;;4.57;1.60;;;;;;;19.55;100.00;99586.94;5076730;28;20200;-85
2022/05/26 11:40:56;;;;;;;2.73;1.43;;;;;;;19.78;100.00;99594.69;5075145;28;20200;-82
2022/05/26 11:43:29;;;;;;;4.53;1.23;;;;;;;20.17;100.00;99574.75;5073866;28;20212;-82
2022/05/26 11:45:59;;;;;;;4.77;1.60;;;;;;;20.41;100.00;99587.63;5070966;28;20195;-83
2022/05/26 11:48:44;;;;;;;4.10;1.30;;;;;;;20.42;100.00;99572.31;5069619;28;20254;-82
2022/05/26 11:51:38;;;;;;;3.07;1.43;;;;;;;20.89;100.00;99572.19;5072817;28;20203;-82
2022/05/26 11:54:08;;;;;;;4.50;1.70;;;;;;;20.49;100.00;99566.22;5076182;28;20280;-82
2022/05/26 11:56:55;;;;;;;4.53;1.60;;;;;;;20.45;100.00;99562.13;5074145;28;20228;-82
2022/05/26 11:59:46;;;;;;;2.63;1.47;;;;;;;19.50;100.00;99570.41;5075742;28;20204;-82
2022/05/26 12:02:31;;;;;;;3.97;1.60;;;;;;;19.19;100.00;99559.00;5074431;28;20212;-82
2022/05/26 12:05:29;;;;;;;4.27;1.70;;;;;;;19.22;100.00;99566.78;5073807;28;20696;-83
2022/05/26 12:07:59;;;;;;;3.40;1.50;;;;;;;19.06;100.00;99574.56;5061056;28;20283;-81
2022/05/26 12:10:30;;;;;;;5.70;1.53;;;;;;;19.02;100.00;99574.00;5076044;28;20280;-82
2022/05/26 12:13:27;;;;;;;4.37;1.80;;;;;;;19.20;100.00;99579.50;5075877;28;20200;-82
2022/05/26 12:16:19;;;;;;;4.60;1.70;;;;;;;19.42;100.00;99583.72;5091429;28;20224;-82
2022/05/26 12:18:51;;;;;;;4.27;1.70;;;;;;;19.40;100.00;99583.88;5078555;28;20196;-82
2022/05/26 12:21:47;;;;;;;2.67;1.67;;;;;;;19.14;100.00;99578.25;5031061;28;20200;-82
2022/05/26 12:24:50;;;;;;;3.20;1.60;;;;;;;19.43;100.00;99580.03;5025415;28;20212;-82
2022/05/26 12:28:10;;;;;;;4.63;1.60;;;;;;;19.34;100.00;99580.91;5021846;28;20305;-83
2022/05/26 12:31:08;;;;;;;3.47;1.50;;;;;;;20.32;100.00;99572.38;5031359;28;20221;-83
2022/05/26 12:34:13;;;;;;;4.00;1.80;;;;;;;20.64;100.00;99576.47;5026256;28;20221;-82